createdAt,value
2017-08-20T07:42:15.951Z,66.00
2017-08-20T07:44:43.673Z,81.60
2017-08-20T07:47:12.082Z,99.90
2017-08-20T07:49:39.609Z,99.90
2017-08-20T07:52:08.359Z,92.00
2017-08-20T07:54:38.541Z,76.80
2017-08-20T07:57:08.668Z,59.20
2017-08-20T07:59:37.269Z,48.40
2017-08-20T08:02:05.013Z,35.20
2017-08-20T08:04:37.110Z,29.80
2017-08-20T08:07:05.701Z,27.30
2017-08-20T08:10:18.963Z,28.20
2017-08-20T08:12:46.484Z,32.30
2017-08-20T08:15:14.197Z,32.70
2017-08-20T08:17:41.756Z,26.00
2017-08-20T08:20:09.393Z,29.20
2017-08-20T08:22:37.290Z,24.40
2017-08-20T08:25:04.821Z,28.80
2017-08-20T08:27:32.328Z,23.40
2017-08-20T08:29:59.860Z,26.60
2017-08-20T08:32:28.505Z,22.30
2017-08-20T08:34:56.032Z,26.20
2017-08-20T08:37:24.576Z,35.60
2017-08-20T08:39:52.102Z,44.70
2017-08-20T08:42:19.742Z,60.40
2017-08-20T08:44:48.539Z,37.10
2017-08-20T08:47:16.484Z,29.70
2017-08-20T08:49:43.982Z,25.50
2017-08-20T08:52:11.640Z,27.70
2017-08-20T08:54:39.402Z,20.40
2017-08-20T08:57:07.657Z,17.60
2017-08-20T08:59:35.321Z,24.60
2017-08-20T09:02:03.017Z,29.80
2017-08-20T09:04:30.589Z,43.30
2017-08-20T09:06:58.188Z,60.40
2017-08-20T09:09:26.664Z,75.10
2017-08-20T09:11:54.224Z,77.80
2017-08-20T09:14:21.845Z,67.10
2017-08-20T09:16:49.464Z,63.40
2017-08-20T09:19:16.988Z,54.40
2017-08-20T09:21:44.602Z,46.30
2017-08-20T09:24:12.133Z,45.90
2017-08-20T09:26:39.641Z,48.90
2017-08-20T09:29:07.172Z,41.60
2017-08-20T09:31:35.820Z,53.70
2017-08-20T09:34:03.342Z,51.60
2017-08-20T09:36:30.860Z,46.00
2017-08-20T09:38:58.356Z,33.00
2017-08-20T09:41:26.772Z,29.30
2017-08-20T09:43:54.368Z,43.30
2017-08-20T09:46:21.895Z,39.00
2017-08-20T09:48:49.396Z,43.60
2017-08-20T09:51:17.022Z,39.60
2017-08-20T09:53:44.832Z,51.80
2017-08-20T09:56:12.548Z,36.40
2017-08-20T09:58:40.137Z,45.50
2017-08-20T10:01:08.075Z,55.10
2017-08-20T10:03:35.603Z,50.80
2017-08-20T10:06:04.209Z,54.30
2017-08-20T10:08:31.736Z,54.80
2017-08-20T10:10:59.309Z,49.50
2017-08-20T10:13:26.946Z,44.80
2017-08-20T10:15:54.605Z,46.40
2017-08-20T10:18:22.276Z,44.00
2017-08-20T10:20:49.805Z,58.40
2017-08-20T10:23:17.310Z,61.90
2017-08-20T10:25:44.952Z,58.80
2017-08-20T10:28:12.566Z,62.70
2017-08-20T10:30:40.218Z,40.90
2017-08-20T10:33:07.749Z,56.50
2017-08-20T10:35:35.397Z,62.90
2017-08-20T10:38:03.076Z,43.70
2017-08-20T10:40:30.588Z,39.40
2017-08-20T10:42:58.108Z,38.00
2017-08-20T10:45:25.608Z,40.70
2017-08-20T10:47:53.150Z,39.10
2017-08-20T10:50:20.657Z,38.80
2017-08-20T10:52:48.392Z,46.90
2017-08-20T10:55:16.116Z,56.80
2017-08-20T10:57:43.762Z,55.80
2017-08-20T11:00:11.260Z,51.50
2017-08-20T11:02:38.932Z,53.20
2017-08-20T11:05:06.676Z,55.00
2017-08-20T11:07:34.291Z,55.80
2017-08-20T11:10:02.005Z,44.70
2017-08-20T11:12:29.505Z,34.60
2017-08-20T11:14:57.027Z,41.10
2017-08-20T11:17:24.544Z,47.10
2017-08-20T11:19:53.172Z,46.00
2017-08-20T11:22:20.676Z,43.60
2017-08-20T11:24:48.273Z,34.00
2017-08-20T11:27:15.964Z,48.80
2017-08-20T11:29:43.613Z,40.50
2017-08-20T11:32:11.237Z,30.00
2017-08-20T11:34:38.873Z,31.70
2017-08-20T11:37:06.528Z,31.80
2017-08-20T11:39:35.467Z,27.60
2017-08-20T11:42:03.101Z,27.60
2017-08-20T11:44:31.589Z,25.10
2017-08-20T11:46:59.121Z,33.30
2017-08-20T11:49:26.732Z,18.60
2017-08-20T11:51:54.278Z,34.30
2017-08-20T11:54:22.384Z,21.10
2017-08-20T11:56:49.909Z,28.90
2017-08-20T11:59:17.481Z,24.80
2017-08-20T12:01:45.038Z,30.80
2017-08-20T12:04:12.761Z,30.60
2017-08-20T12:06:40.265Z,32.20
2017-08-20T12:09:07.789Z,25.70
2017-08-20T12:11:35.285Z,30.10
2017-08-20T12:14:02.893Z,35.30
2017-08-20T12:16:30.406Z,38.10
2017-08-20T12:18:58.026Z,30.40
2017-08-20T12:21:25.530Z,34.20
2017-08-20T12:23:53.168Z,34.30
2017-08-20T12:26:20.677Z,39.60
2017-08-20T12:28:48.181Z,41.40
2017-08-20T12:31:15.752Z,42.40
2017-08-20T12:33:44.623Z,53.20
2017-08-20T12:36:12.140Z,47.00
2017-08-20T12:38:39.813Z,44.40
2017-08-20T12:41:07.561Z,45.10
2017-08-20T12:43:35.333Z,45.40
2017-08-20T12:46:02.928Z,41.00
2017-08-20T12:48:30.452Z,48.60
2017-08-20T12:50:58.057Z,50.00
2017-08-20T12:53:25.660Z,46.80
2017-08-20T12:55:53.160Z,37.80
2017-08-20T12:58:20.687Z,46.90
2017-08-20T13:00:48.186Z,60.10
2017-08-20T13:03:15.704Z,62.80
2017-08-20T13:05:43.336Z,60.10
2017-08-20T13:08:10.882Z,67.60
2017-08-20T13:10:38.593Z,62.40
2017-08-20T13:13:06.130Z,67.00
2017-08-20T13:15:33.770Z,63.60
2017-08-20T13:18:01.307Z,62.60
2017-08-20T13:20:28.879Z,68.40
2017-08-20T13:22:56.377Z,66.60
2017-08-20T13:25:24.012Z,62.80
2017-08-20T13:27:51.513Z,52.60
2017-08-20T13:30:19.166Z,54.00
2017-08-20T13:32:46.686Z,47.20
2017-08-20T13:35:14.257Z,50.70
2017-08-20T13:37:42.054Z,36.50
2017-08-20T13:40:09.825Z,41.40
2017-08-20T13:42:37.320Z,36.50
2017-08-20T13:45:04.918Z,33.60
2017-08-20T13:47:32.435Z,42.80
2017-08-20T13:49:59.940Z,48.50
2017-08-20T13:52:27.462Z,39.10
2017-08-20T13:54:55.788Z,32.30
2017-08-20T13:57:23.358Z,36.90
2017-08-20T13:59:53.261Z,32.90
2017-08-20T14:02:26.086Z,31.00
2017-08-20T14:04:55.412Z,29.90
2017-08-20T14:07:24.878Z,29.70
2017-08-20T14:09:57.797Z,27.70
2017-08-20T14:14:59.579Z,30.80
2017-08-20T14:17:28.151Z,30.30
2017-08-20T14:19:56.496Z,29.30
2017-08-20T14:22:26.391Z,22.50
2017-08-20T14:24:56.900Z,22.10
2017-08-20T14:27:30.356Z,29.80
2017-08-20T14:30:04.480Z,26.60
2017-08-20T14:35:11.777Z,24.10
2017-08-20T14:37:42.404Z,35.90
2017-08-20T14:40:13.286Z,34.30
2017-08-20T14:42:43.353Z,31.90
2017-08-20T14:45:13.369Z,21.40
2017-08-20T14:47:44.763Z,25.60
2017-08-20T14:50:19.201Z,21.20
2017-08-20T14:52:52.011Z,25.50
2017-08-20T14:55:25.230Z,26.50
2017-08-20T14:57:56.784Z,20.80
2017-08-20T15:00:27.319Z,24.80
2017-08-20T15:02:58.972Z,24.10
2017-08-20T15:08:22.128Z,24.10
2017-08-20T15:10:56.680Z,21.80
2017-08-20T15:13:45.221Z,23.70
2017-08-20T15:19:10.468Z,26.00
2017-08-20T15:21:51.789Z,28.70
2017-08-20T15:27:24.462Z,28.60
2017-08-20T15:30:02.200Z,30.20
2017-08-20T15:35:40.815Z,33.80
2017-08-20T15:41:05.360Z,58.60
2017-08-20T15:43:34.497Z,77.50
2017-08-20T15:46:02.261Z,99.90
2017-08-20T15:48:38.965Z,99.90
2017-08-20T15:51:15.596Z,99.90
2017-08-20T15:53:44.358Z,99.90
2017-08-20T15:56:12.295Z,99.90
2017-08-20T15:58:40.017Z,99.90
2017-08-20T16:01:07.550Z,99.90
2017-08-20T16:03:35.048Z,99.90
2017-08-20T16:06:02.832Z,99.90
2017-08-20T16:08:30.342Z,99.90
2017-08-20T16:10:58.182Z,99.90
2017-08-20T16:16:18.971Z,99.90
2017-08-20T16:18:46.664Z,98.50
2017-08-20T16:21:14.218Z,83.80
2017-08-20T16:23:41.742Z,97.00
2017-08-20T16:26:09.235Z,94.20
2017-08-20T16:28:37.237Z,99.90
2017-08-20T16:31:04.737Z,94.40
2017-08-20T16:33:32.641Z,95.50
2017-08-20T16:36:01.553Z,74.40
